Time;durP1;ratioP1;P1;durP2;ratioP2;P2;SDS_P1;SDS_P2;PMS_P1;PMS_P2;Temp;Humidity;BMP_temperature;BMP_pressure;BME280_temperature;BME280_humidity;BME280_pressure;Samples;Min_cycle;Max_cycle;Signal;HPM_P1;HPM_P2
2023/05/05 00:01:11;;;;;;;;;;;10.90;99.90;;;;;;5093969;28;19980;-84
2023/05/05 00:03:37;;;;;;;;;;;10.90;99.90;;;;;;5098931;27;19924;-84
2023/05/05 00:06:04;;;;;;;;;;;11.00;99.90;;;;;;5101822;28;19927;-83
2023/05/05 00:08:29;;;;;;;;;;;10.90;99.90;;;;;;5079810;28;20303;-84
2023/05/05 00:10:56;;;;;;;;;;;10.90;99.90;;;;;;5095942;27;19924;-84
2023/05/05 00:13:22;;;;;;;;;;;10.90;99.90;;;;;;5112854;27;20010;-83
2023/05/05 00:15:48;;;;;;;;;;;11.00;99.90;;;;;;5085664;27;20015;-84
2023/05/05 00:18:15;;;;;;;;;;;11.00;99.90;;;;;;5087513;28;19923;-83
2023/05/05 00:20:40;;;;;;;;;;;11.00;99.90;;;;;;5091304;28;20329;-83
2023/05/05 00:23:06;;;;;;;;;;;11.00;99.90;;;;;;5101621;27;19923;-84
2023/05/05 00:25:31;;;;;;;;;;;11.10;99.90;;;;;;5109010;28;20370;-83
2023/05/05 00:27:57;;;;;;;;;;;11.10;99.90;;;;;;5094979;28;19928;-83
2023/05/05 00:30:23;;;;;;;;;;;11.00;99.90;;;;;;5089633;27;19927;-84
2023/05/05 00:32:49;;;;;;;;;;;11.00;99.90;;;;;;5100450;27;19930;-84
2023/05/05 00:35:15;;;;;;;;;;;11.00;99.90;;;;;;5102384;28;20501;-84
2023/05/05 00:37:41;;;;;;;;;;;11.00;99.90;;;;;;5105108;27;20379;-84
2023/05/05 00:40:07;;;;;;;;;;;11.00;99.90;;;;;;5081891;27;19930;-84
2023/05/05 00:42:39;;;;;;;;;;;10.90;99.90;;;;;;5085769;28;19931;-84
2023/05/05 00:45:05;;;;;;;;;;;11.00;99.90;;;;;;5074379;28;20291;-84
2023/05/05 00:47:31;;;;;;;;;;;10.90;99.90;;;;;;5089734;27;19927;-84
2023/05/05 00:49:57;;;;;;;;;;;10.90;99.90;;;;;;5116011;27;20002;-84
2023/05/05 00:52:22;;;;;;;;;;;10.90;99.90;;;;;;5111610;27;19923;-84
2023/05/05 00:54:48;;;;;;;;;;;10.80;99.90;;;;;;5104782;28;20273;-84
2023/05/05 00:57:14;;;;;;;;;;;10.80;99.90;;;;;;5110691;28;20385;-84
2023/05/05 00:59:39;;;;;;;;;;;10.80;99.90;;;;;;5094058;28;19935;-83
2023/05/05 01:02:05;;;;;;;;;;;10.80;99.90;;;;;;5106579;28;19930;-83
2023/05/05 01:04:30;;;;;;;;;;;10.80;99.90;;;;;;5079859;28;20289;-85
2023/05/05 01:06:59;;;;;;;;;;;10.80;99.90;;;;;;5096567;28;19923;-83
2023/05/05 01:09:25;;;;;;;;;;;10.70;99.90;;;;;;5090799;28;20002;-84
2023/05/05 01:11:56;;;;;;;;;;;10.70;99.90;;;;;;5106342;28;20431;-84
2023/05/05 01:14:26;;;;;;;;;;;10.60;99.90;;;;;;5092658;28;19929;-85
2023/05/05 01:16:57;;;;;;;;;;;10.60;99.90;;;;;;5082957;28;19923;-84
2023/05/05 01:19:41;;;;;;;;;;;10.60;99.90;;;;;;5091986;28;19931;-84
2023/05/05 01:22:10;;;;;;;;;;;10.50;99.90;;;;;;5115271;28;20026;-85
2023/05/05 01:24:42;;;;;;;;;;;10.50;99.90;;;;;;5098645;28;19960;-85
2023/05/05 01:27:17;;;;;;;;;;;10.40;99.90;;;;;;5087425;28;20351;-86
2023/05/05 01:29:45;;;;;;;;;;;10.40;99.90;;;;;;5105342;28;19934;-84
2023/05/05 01:32:15;;;;;;;;;;;10.40;99.90;;;;;;5082728;28;19924;-85
2023/05/05 01:34:44;;;;;;;;;;;10.40;99.90;;;;;;5084634;28;19924;-84
2023/05/05 01:37:17;;;;;;;;;;;10.40;99.90;;;;;;5084512;28;19924;-84
2023/05/05 01:39:45;;;;;;;;;;;10.40;99.90;;;;;;5091458;28;19923;-83
2023/05/05 01:42:13;;;;;;;;;;;10.40;99.90;;;;;;5092996;28;19930;-84
2023/05/05 01:44:43;;;;;;;;;;;10.40;99.90;;;;;;5087369;28;19931;-84
2023/05/05 01:47:13;;;;;;;;;;;10.40;99.90;;;;;;5104472;28;19973;-84
2023/05/05 01:49:39;;;;;;;;;;;10.40;99.90;;;;;;5097697;28;19927;-84
2023/05/05 01:52:05;;;;;;;;;;;10.40;99.90;;;;;;5088630;28;19962;-84
2023/05/05 01:54:32;;;;;;;;;;;10.40;99.90;;;;;;5107393;28;19923;-85
2023/05/05 01:56:58;;;;;;;;;;;10.40;99.90;;;;;;5098338;28;20287;-83
2023/05/05 01:59:25;;;;;;;;;;;10.40;99.90;;;;;;5110589;28;19931;-83
2023/05/05 02:01:51;;;;;;;;;;;10.40;99.90;;;;;;5108757;28;19924;-84
2023/05/05 02:04:17;;;;;;;;;;;10.40;99.90;;;;;;5103014;28;19935;-84
2023/05/05 02:06:44;;;;;;;;;;;10.40;99.90;;;;;;5073660;28;19979;-83
2023/05/05 02:09:10;;;;;;;;;;;10.40;99.90;;;;;;5106708;28;19928;-83
2023/05/05 02:11:36;;;;;;;;;;;10.40;99.90;;;;;;5096011;28;20287;-83
2023/05/05 02:14:04;;;;;;;;;;;10.40;99.90;;;;;;5096687;28;20436;-84
2023/05/05 02:16:30;;;;;;;;;;;10.40;99.90;;;;;;5109615;28;19961;-83
2023/05/05 02:18:57;;;;;;;;;;;10.40;99.90;;;;;;5075401;28;19924;-83
2023/05/05 02:21:22;;;;;;;;;;;10.40;99.90;;;;;;5094695;28;19930;-83
2023/05/05 02:23:50;;;;;;;;;;;10.40;99.90;;;;;;5099536;28;20336;-83
2023/05/05 02:26:18;;;;;;;;;;;10.40;99.90;;;;;;5094167;28;19970;-83
2023/05/05 02:28:47;;;;;;;;;;;10.40;99.90;;;;;;5088719;27;19923;-83
2023/05/05 02:31:12;;;;;;;;;;;10.40;99.90;;;;;;5091953;27;20287;-83
2023/05/05 02:33:39;;;;;;;;;;;10.40;99.90;;;;;;5092175;27;19923;-83
2023/05/05 02:36:07;;;;;;;;;;;10.40;99.90;;;;;;5101070;27;19970;-83
2023/05/05 02:38:33;;;;;;;;;;;10.40;99.90;;;;;;5097935;28;19924;-83
2023/05/05 02:41:00;;;;;;;;;;;10.40;99.90;;;;;;5108983;28;19949;-84
2023/05/05 02:43:28;;;;;;;;;;;10.40;99.90;;;;;;5108794;28;19923;-84
2023/05/05 02:45:54;;;;;;;;;;;10.40;99.90;;;;;;5109272;28;19924;-84
2023/05/05 02:48:19;;;;;;;;;;;10.40;99.90;;;;;;5112228;28;20371;-83
2023/05/05 02:50:45;;;;;;;;;;;10.40;99.90;;;;;;5092614;28;19939;-83
2023/05/05 02:53:11;;;;;;;;;;;10.40;99.90;;;;;;5097808;28;19946;-85
2023/05/05 02:55:42;;;;;;;;;;;10.40;99.90;;;;;;5098991;28;19947;-87
2023/05/05 02:58:23;;;;;;;;;;;10.40;99.90;;;;;;5098648;28;20069;-85
2023/05/05 03:00:56;;;;;;;;;;;10.40;99.90;;;;;;5081399;28;20019;-86
2023/05/05 03:03:45;;;;;;;;;;;10.50;99.90;;;;;;5116553;28;19924;-85
2023/05/05 03:06:16;;;;;;;;;;;10.40;99.90;;;;;;5084963;28;19924;-85
2023/05/05 03:08:43;;;;;;;;;;;10.30;99.90;;;;;;5116511;28;19939;-86
2023/05/05 03:11:15;;;;;;;;;;;10.30;99.90;;;;;;5098456;28;20282;-87
2023/05/05 03:13:41;;;;;;;;;;;10.30;99.90;;;;;;5116299;28;19992;-86
2023/05/05 03:16:07;;;;;;;;;;;10.30;99.90;;;;;;5098373;28;20275;-86
2023/05/05 03:18:34;;;;;;;;;;;10.30;99.90;;;;;;5081192;28;19924;-86
2023/05/05 03:21:06;;;;;;;;;;;10.20;99.90;;;;;;5081287;28;19934;-86
2023/05/05 03:23:32;;;;;;;;;;;10.20;99.90;;;;;;5098272;28;19924;-86
2023/05/05 03:25:58;;;;;;;;;;;10.20;99.90;;;;;;5097903;28;19930;-86
2023/05/05 03:28:23;;;;;;;;;;;10.20;99.90;;;;;;5081343;28;20484;-86
2023/05/05 03:30:49;;;;;;;;;;;10.30;99.90;;;;;;5098313;28;20042;-85
2023/05/05 03:33:15;;;;;;;;;;;10.30;99.90;;;;;;5116367;28;19924;-86
2023/05/05 03:35:41;;;;;;;;;;;10.30;99.90;;;;;;5098178;28;19947;-85
2023/05/05 03:38:06;;;;;;;;;;;10.30;99.90;;;;;;5097795;28;19931;-85
2023/05/05 03:40:32;;;;;;;;;;;10.30;99.90;;;;;;5064533;28;19924;-85
2023/05/05 03:42:57;;;;;;;;;;;10.30;99.90;;;;;;5097790;28;19927;-85
2023/05/05 03:45:24;;;;;;;;;;;10.30;99.90;;;;;;5097766;28;19924;-85
2023/05/05 03:47:50;;;;;;;;;;;10.30;99.90;;;;;;5081107;28;20264;-85
2023/05/05 03:50:16;;;;;;;;;;;10.30;99.90;;;;;;5097792;28;19924;-85
2023/05/05 03:52:41;;;;;;;;;;;10.30;99.90;;;;;;5080791;28;19924;-85
2023/05/05 03:55:07;;;;;;;;;;;10.30;99.90;;;;;;5080742;28;20268;-85
2023/05/05 03:57:33;;;;;;;;;;;10.30;99.90;;;;;;5097695;28;19938;-85
2023/05/05 03:59:59;;;;;;;;;;;10.30;99.90;;;;;;5097307;28;19931;-85
2023/05/05 04:02:25;;;;;;;;;;;10.30;99.90;;;;;;5115424;28;19967;-85
2023/05/05 04:04:50;;;;;;;;;;;10.30;99.90;;;;;;5080628;28;19931;-85
2023/05/05 04:07:16;;;;;;;;;;;10.40;99.90;;;;;;5081035;28;20397;-85
2023/05/05 04:09:43;;;;;;;;;;;10.40;99.90;;;;;;5080353;28;19982;-85
2023/05/05 04:12:12;;;;;;;;;;;10.40;99.90;;;;;;5081238;28;19924;-85
2023/05/05 04:14:38;;;;;;;;;;;10.40;99.90;;;;;;5097151;28;20006;-85
2023/05/05 04:17:05;;;;;;;;;;;10.40;99.90;;;;;;5097201;28;20344;-85
2023/05/05 04:19:31;;;;;;;;;;;10.40;99.90;;;;;;5097972;28;19931;-85
2023/05/05 04:21:56;;;;;;;;;;;10.10;99.90;;;;;;5115128;28;19923;-85
2023/05/05 04:24:23;;;;;;;;;;;10.40;99.90;;;;;;5063632;28;19976;-85
2023/05/05 04:26:52;;;;;;;;;;;10.30;99.90;;;;;;5096744;28;20020;-85
2023/05/05 04:29:18;;;;;;;;;;;10.40;99.90;;;;;;5114982;28;20030;-85
2023/05/05 04:31:44;;;;;;;;;;;10.40;99.90;;;;;;5080256;28;19975;-86
2023/05/05 04:34:09;;;;;;;;;;;9.10;99.90;;;;;;5079646;28;19935;-86
2023/05/05 04:36:35;;;;;;;;;;;10.30;99.90;;;;;;5079945;28;19923;-86
2023/05/05 04:39:01;;;;;;;;;;;10.30;99.90;;;;;;5079987;28;19946;-86
2023/05/05 04:41:26;;;;;;;;;;;10.20;99.90;;;;;;5114570;28;19930;-86
2023/05/05 04:43:52;;;;;;;;;;;10.10;99.90;;;;;;5079121;28;20327;-86
2023/05/05 04:46:18;;;;;;;;;;;7.40;99.90;;;;;;5096673;28;20010;-86
2023/05/05 04:48:44;;;;;;;;;;;9.90;99.90;;;;;;5113661;28;19932;-86
2023/05/05 04:51:09;;;;;;;;;;;9.90;99.90;;;;;;5114507;28;19928;-87
2023/05/05 04:53:35;;;;;;;;;;;10.00;99.90;;;;;;5079210;28;19924;-87
2023/05/05 04:56:01;;;;;;;;;;;9.90;99.90;;;;;;5096744;28;19971;-86
2023/05/05 04:58:27;;;;;;;;;;;9.80;99.90;;;;;;5113348;28;19977;-86
2023/05/05 05:00:53;;;;;;;;;;;9.80;99.90;;;;;;5062571;28;19924;-85
2023/05/05 05:03:18;;;;;;;;;;;9.70;99.90;;;;;;5079620;28;20022;-86
2023/05/05 05:05:44;;;;;;;;;;;9.80;99.90;;;;;;5096550;28;19923;-86
2023/05/05 05:08:09;;;;;;;;;;;9.70;99.90;;;;;;5113404;28;19928;-86
2023/05/05 05:10:35;;;;;;;;;;;9.50;99.90;;;;;;5097322;28;20037;-86
2023/05/05 05:13:01;;;;;;;;;;;9.60;99.90;;;;;;5081006;28;19924;-86
2023/05/05 05:15:26;;;;;;;;;;;9.50;99.90;;;;;;5096439;28;19924;-86
2023/05/05 05:17:52;;;;;;;;;;;9.40;99.90;;;;;;5079317;28;20367;-87
2023/05/05 05:20:18;;;;;;;;;;;9.30;99.90;;;;;;5096314;28;19923;-87
2023/05/05 05:22:43;;;;;;;;;;;9.30;99.90;;;;;;5079529;28;19938;-86
2023/05/05 05:25:09;;;;;;;;;;;9.30;99.90;;;;;;5113504;28;19927;-87
2023/05/05 05:27:35;;;;;;;;;;;9.30;99.90;;;;;;5097330;28;19973;-87
2023/05/05 05:30:01;;;;;;;;;;;9.30;99.90;;;;;;5096539;28;19923;-87
2023/05/05 05:32:26;;;;;;;;;;;9.40;99.90;;;;;;5097080;28;19928;-87
2023/05/05 05:34:52;;;;;;;;;;;9.20;99.90;;;;;;5080000;28;19924;-87
2023/05/05 05:37:18;;;;;;;;;;;9.40;99.90;;;;;;5080024;28;19923;-88
2023/05/05 05:39:49;;;;;;;;;;;9.10;99.90;;;;;;5063453;28;20366;-87
2023/05/05 05:42:15;;;;;;;;;;;9.40;99.90;;;;;;5079658;28;19928;-87
2023/05/05 05:44:40;;;;;;;;;;;9.60;99.90;;;;;;5080011;28;20336;-87
2023/05/05 05:47:06;;;;;;;;;;;9.60;99.90;;;;;;5114271;28;19924;-87
2023/05/05 05:49:31;;;;;;;;;;;9.70;99.90;;;;;;5079258;28;20019;-87
2023/05/05 05:51:57;;;;;;;;;;;9.80;99.90;;;;;;5096248;28;19935;-88
2023/05/05 05:54:23;;;;;;;;;;;9.90;99.90;;;;;;5095606;28;19920;-89
2023/05/05 05:56:48;;;;;;;;;;;10.00;99.90;;;;;;5080409;28;19966;-88
2023/05/05 05:59:14;;;;;;;;;;;10.10;99.90;;;;;;5101326;28;19926;-88
2023/05/05 06:01:40;;;;;;;;;;;10.20;99.90;;;;;;5084272;28;19969;-88
2023/05/05 06:04:05;;;;;;;;;;;10.20;99.90;;;;;;5099682;28;19919;-91
2023/05/05 06:06:36;;;;;;;;;;;10.30;99.90;;;;;;5099920;28;20359;-91
2023/05/05 06:09:04;;;;;;;;;;;12.80;99.90;;;;;;5083538;28;19926;-93
2023/05/05 06:11:33;;;;;;;;;;;10.30;99.90;;;;;;5099623;28;19923;-93
2023/05/05 06:13:59;;;;;;;;;;;10.40;99.90;;;;;;5083224;28;19978;-89
2023/05/05 06:16:25;;;;;;;;;;;10.40;99.90;;;;;;5082638;28;19974;-89
2023/05/05 06:18:51;;;;;;;;;;;10.50;99.90;;;;;;5099128;28;19945;-89
2023/05/05 06:21:19;;;;;;;;;;;10.40;99.90;;;;;;5082818;28;19920;-88
2023/05/05 06:23:45;;;;;;;;;;;10.70;99.90;;;;;;5100108;28;19927;-89
2023/05/05 06:26:11;;;;;;;;;;;10.70;99.90;;;;;;5115909;28;20367;-89
2023/05/05 06:28:36;;;;;;;;;;;10.50;99.90;;;;;;5082320;28;19927;-89
2023/05/05 06:31:02;;;;;;;;;;;11.10;99.90;;;;;;5099119;28;19926;-88
2023/05/05 06:33:27;;;;;;;;;;;10.60;99.90;;;;;;5082543;28;19926;-88
2023/05/05 06:35:53;;;;;;;;;;;10.70;99.90;;;;;;5082545;28;20016;-89
2023/05/05 06:38:19;;;;;;;;;;;10.80;99.90;;;;;;5064869;28;20115;-89
2023/05/05 06:40:51;;;;;;;;;;;10.90;99.90;;;;;;5081760;28;19920;-88
2023/05/05 06:43:16;;;;;;;;;;;10.90;99.90;;;;;;5082398;28;19939;-89
2023/05/05 06:45:42;;;;;;;;;;;11.00;99.90;;;;;;5082228;28;20272;-90
2023/05/05 06:48:08;;;;;;;;;;;9.60;99.90;;;;;;5082495;28;19926;-89
2023/05/05 06:50:33;;;;;;;;;;;11.00;99.90;;;;;;5082131;28;20015;-88
2023/05/05 06:52:59;;;;;;;;;;;11.10;99.90;;;;;;5098751;28;19923;-89
2023/05/05 06:55:25;;;;;;;;;;;11.10;99.90;;;;;;5098815;28;20011;-91
2023/05/05 06:57:51;;;;;;;;;;;11.20;99.90;;;;;;5082534;28;19939;-91
2023/05/05 07:00:17;;;;;;;;;;;11.20;99.90;;;;;;5064712;28;19926;-90
2023/05/05 07:02:43;;;;;;;;;;;14.00;99.90;;;;;;5115490;28;19927;-90
2023/05/05 07:05:09;;;;;;;;;;;11.60;99.90;;;;;;5081710;28;19920;-88
2023/05/05 07:07:35;;;;;;;;;;;11.40;99.90;;;;;;5081474;28;19959;-89
2023/05/05 07:10:00;;;;;;;;;;;11.50;99.90;;;;;;5064922;28;20022;-90
2023/05/05 07:12:30;;;;;;;;;;;12.00;99.90;;;;;;5081554;28;19927;-90
2023/05/05 07:14:56;;;;;;;;;;;11.60;99.90;;;;;;5081572;28;20430;-90
2023/05/05 07:17:21;;;;;;;;;;;12.30;99.90;;;;;;5081372;28;19959;-90
2023/05/05 07:19:47;;;;;;;;;;;12.30;99.90;;;;;;5081606;28;19920;-91
2023/05/05 07:22:13;;;;;;;;;;;11.90;99.90;;;;;;5081578;28;20053;-88
2023/05/05 07:24:38;;;;;;;;;;;11.90;99.90;;;;;;5081571;28;20347;-88
2023/05/05 07:27:05;;;;;;;;;;;12.00;99.90;;;;;;5098884;28;20355;-89
2023/05/05 07:29:30;;;;;;;;;;;10.20;99.90;;;;;;5098229;28;19923;-89
2023/05/05 07:31:56;;;;;;;;;;;12.10;99.90;;;;;;5081248;28;19968;-89
2023/05/05 07:34:22;;;;;;;;;;;12.30;99.90;;;;;;5080942;28;19969;-88
2023/05/05 07:36:47;;;;;;;;;;;12.20;99.90;;;;;;5097700;28;20283;-91
2023/05/05 07:39:14;;;;;;;;;;;12.70;99.90;;;;;;5097416;28;19992;-88
2023/05/05 07:41:40;;;;;;;;;;;12.40;99.90;;;;;;5064353;28;19924;-89
2023/05/05 07:44:06;;;;;;;;;;;12.40;99.90;;;;;;5080789;28;19919;-91
2023/05/05 07:46:31;;;;;;;;;;;12.90;99.90;;;;;;5097638;28;19928;-88
2023/05/05 07:48:57;;;;;;;;;;;12.60;99.90;;;;;;5097632;28;20018;-88
2023/05/05 07:51:23;;;;;;;;;;;10.60;99.90;;;;;;5080903;28;19920;-89
2023/05/05 07:53:48;;;;;;;;;;;12.60;99.90;;;;;;5080746;28;19919;-88
2023/05/05 07:56:14;;;;;;;;;;;12.70;99.90;;;;;;5063968;28;20053;-87
2023/05/05 07:58:42;;;;;;;;;;;12.70;99.90;;;;;;5115795;28;19924;-87
2023/05/05 08:01:09;;;;;;;;;;;12.90;99.90;;;;;;5064074;28;20244;-87
2023/05/05 08:03:35;;;;;;;;;;;13.30;99.90;;;;;;5097341;28;19926;-87
2023/05/05 08:06:09;;;;;;;;;;;13.30;99.90;;;;;;5081170;28;20228;-88
2023/05/05 08:08:35;;;;;;;;;;;13.00;99.90;;;;;;5080740;28;19929;-88
2023/05/05 08:11:01;;;;;;;;;;;13.20;99.90;;;;;;5098138;28;19927;-87
2023/05/05 08:13:27;;;;;;;;;;;13.90;99.90;;;;;;5081153;28;19919;-88
2023/05/05 08:15:52;;;;;;;;;;;13.80;99.90;;;;;;5080059;28;19920;-87
2023/05/05 08:18:18;;;;;;;;;;;13.70;99.90;;;;;;5096199;28;19920;-88
2023/05/05 08:20:46;;;;;;;;;;;13.60;99.90;;;;;;5113785;28;19972;-89
2023/05/05 08:23:12;;;;;;;;;;;14.00;99.90;;;;;;5079848;28;19999;-88
2023/05/05 08:25:38;;;;;;;;;;;13.60;99.90;;;;;;5114090;28;19968;-87
2023/05/05 08:28:03;;;;;;;;;;;13.90;99.90;;;;;;5079719;28;19926;-88
2023/05/05 08:30:29;;;;;;;;;;;15.60;99.90;;;;;;5097006;28;20022;-88
2023/05/05 08:32:55;;;;;;;;;;;13.90;99.90;;;;;;5079971;28;19920;-88
2023/05/05 08:35:23;;;;;;;;;;;14.00;99.90;;;;;;5096892;28;19926;-87
2023/05/05 08:37:51;;;;;;;;;;;14.50;99.90;;;;;;5080114;28;19927;-87
2023/05/05 08:40:19;;;;;;;;;;;14.20;99.90;;;;;;5096785;28;20030;-87
2023/05/05 08:42:45;;;;;;;;;;;14.00;99.90;;;;;;5096699;28;20262;-87
2023/05/05 08:45:11;;;;;;;;;;;14.30;99.90;;;;;;5080296;28;19920;-87
2023/05/05 08:47:37;;;;;;;;;;;14.20;99.90;;;;;;5080108;28;19919;-87
2023/05/05 08:50:04;;;;;;;;;;;15.00;99.90;;;;;;5114468;28;20016;-87
2023/05/05 08:52:43;;;;;;;;;;;14.30;99.90;;;;;;5096314;28;19924;-87
2023/05/05 08:55:09;;;;;;;;;;;14.40;99.90;;;;;;5096732;28;19927;-87
2023/05/05 08:57:38;;;;;;;;;;;15.00;99.90;;;;;;5079825;28;19920;-86
2023/05/05 09:00:04;;;;;;;;;;;14.90;99.90;;;;;;5079444;28;20252;-87
2023/05/05 09:02:30;;;;;;;;;;;14.80;99.90;;;;;;5079579;28;19931;-87
2023/05/05 09:04:56;;;;;;;;;;;14.90;99.90;;;;;;5079845;28;20080;-87
2023/05/05 09:07:21;;;;;;;;;;;15.00;99.90;;;;;;5096217;28;19959;-87
2023/05/05 09:09:48;;;;;;;;;;;15.10;99.90;;;;;;5079618;28;20018;-87
2023/05/05 09:12:16;;;;;;;;;;;15.20;99.90;;;;;;5096371;28;20014;-88
2023/05/05 09:14:42;;;;;;;;;;;15.40;99.90;;;;;;5096626;28;20354;-87
2023/05/05 09:17:20;;;;;;;;;;;15.50;99.90;;;;;;5079776;28;19919;-87
2023/05/05 09:20:06;;;;;;;;;;;15.50;99.90;;;;;;5079879;28;19927;-87
2023/05/05 09:22:35;;;;;;;;;;;15.60;99.90;;;;;;5096963;28;20016;-87
2023/05/05 09:25:01;;;;;;;;;;;15.70;99.90;;;;;;5114189;28;19920;-88
2023/05/05 09:27:27;;;;;;;;;;;15.90;99.90;;;;;;5096178;28;19920;-87
2023/05/05 09:29:53;;;;;;;;;;;15.90;99.90;;;;;;5079837;28;19920;-87
2023/05/05 09:32:19;;;;;;;;;;;16.00;99.90;;;;;;5100295;28;19927;-87
2023/05/05 09:34:55;;;;;;;;;;;16.20;99.90;;;;;;5083562;28;19924;-87
2023/05/05 09:37:30;;;;;;;;;;;16.30;99.90;;;;;;5100486;28;20345;-87
2023/05/05 09:39:57;;;;;;;;;;;16.30;99.90;;;;;;5100236;28;19977;-87
2023/05/05 09:42:23;;;;;;;;;;;16.40;99.90;;;;;;5100313;28;19924;-86
2023/05/05 09:44:49;;;;;;;;;;;16.80;99.90;;;;;;5100451;28;19919;-87
2023/05/05 09:47:15;;;;;;;;;;;16.80;99.90;;;;;;5083254;28;19967;-87
2023/05/05 09:49:41;;;;;;;;;;;16.80;99.90;;;;;;5083571;28;19970;-87
2023/05/05 09:52:16;;;;;;;;;;;17.10;99.90;;;;;;5083080;28;20358;-86
2023/05/05 09:54:42;;;;;;;;;;;17.00;99.90;;;;;;5099794;28;19923;-88
2023/05/05 09:57:23;;;;;;;;;;;17.00;99.90;;;;;;5117606;28;19931;-88
2023/05/05 09:59:56;;;;;;;;;;;17.10;99.90;;;;;;5083334;28;19924;-86
2023/05/05 10:02:28;;;;;;;;;;;17.90;99.90;;;;;;5117561;28;20248;-88
2023/05/05 10:05:11;;;;;;;;;;;17.20;99.90;;;;;;5100435;28;19923;-87
2023/05/05 10:07:37;;;;;;;;;;;17.40;99.90;;;;;;5099655;28;20026;-88
2023/05/05 10:10:04;;;;;;;;;;;17.70;99.90;;;;;;5099614;28;20275;-87
2023/05/05 10:12:30;;;;;;;;;;;17.90;99.90;;;;;;5099703;28;19935;-88
2023/05/05 10:14:56;;;;;;;;;;;17.90;99.90;;;;;;5082505;28;19924;-86
2023/05/05 10:17:22;;;;;;;;;;;18.10;99.90;;;;;;5100028;28;20114;-88
2023/05/05 10:19:51;;;;;;;;;;;18.00;99.90;;;;;;5099334;28;19931;-87
2023/05/05 10:22:20;;;;;;;;;;;17.90;99.90;;;;;;5082454;28;19924;-87
2023/05/05 10:24:49;;;;;;;;;;;18.20;99.90;;;;;;5100340;28;19923;-89
2023/05/05 10:27:17;;;;;;;;;;;17.90;99.90;;;;;;5082809;28;19924;-88
2023/05/05 10:29:50;;;;;;;;;;;18.00;99.90;;;;;;5117241;28;19976;-88
2023/05/05 10:32:20;;;;;;;;;;;18.10;99.90;;;;;;5082364;28;19924;-86
2023/05/05 10:34:49;;;;;;;;;;;18.10;99.90;;;;;;5099981;28;20317;-87
2023/05/05 10:37:15;;;;;;;;;;;18.70;99.90;;;;;;5099098;28;20349;-88
2023/05/05 10:39:41;;;;;;;;;;;18.70;99.90;;;;;;5099214;28;20015;-88
2023/05/05 10:42:07;;;;;;;;;;;18.50;99.90;;;;;;5081246;28;20018;-87
2023/05/05 10:44:33;;;;;;;;;;;18.80;99.90;;;;;;5098810;28;19963;-87
2023/05/05 10:46:59;;;;;;;;;;;18.70;99.90;;;;;;5098813;28;20415;-87
2023/05/05 10:49:25;;;;;;;;;;;18.90;99.90;;;;;;5098997;28;19931;-87
2023/05/05 10:51:51;;;;;;;;;;;18.80;99.90;;;;;;5081970;28;19930;-88
2023/05/05 10:54:35;;;;;;;;;;;19.00;99.90;;;;;;5098011;28;20018;-88
2023/05/05 10:57:03;;;;;;;;;;;18.90;99.90;;;;;;5082573;28;19923;-87
2023/05/05 10:59:38;;;;;;;;;;;19.00;99.90;;;;;;5078260;28;20344;-87
2023/05/05 11:02:30;;;;;;;;;;;19.10;99.90;;;;;;5096108;28;19924;-89
2023/05/05 11:05:22;;;;;;;;;;;19.70;99.90;;;;;;5073409;28;20019;-88
2023/05/05 11:07:49;;;;;;;;;;;19.70;99.90;;;;;;5073616;28;19924;-88
2023/05/05 11:10:15;;;;;;;;;;;19.70;99.90;;;;;;5061444;28;19924;-87
2023/05/05 11:12:50;;;;;;;;;;;19.70;99.90;;;;;;5077805;28;19923;-88
2023/05/05 11:15:34;;;;;;;;;;;19.60;99.90;;;;;;5094960;28;19979;-89
2023/05/05 11:18:01;;;;;;;;;;;19.60;99.90;;;;;;5095025;28;19999;-88
2023/05/05 11:20:35;;;;;;;;;;;19.90;99.90;;;;;;5078304;28;20230;-87
2023/05/05 11:23:01;;;;;;;;;;;20.00;99.90;;;;;;5077996;28;20007;-88
2023/05/05 11:25:36;;;;;;;;;;;20.10;99.90;;;;;;5095636;28;19967;-89
2023/05/05 11:28:05;;;;;;;;;;;20.00;99.90;;;;;;5095441;28;20308;-87
2023/05/05 11:30:31;;;;;;;;;;;20.00;99.90;;;;;;5094930;28;19920;-88
2023/05/05 11:33:15;;;;;;;;;;;19.60;99.90;;;;;;5077721;28;19931;-88
2023/05/05 11:36:13;;;;;;;;;;;19.50;99.90;;;;;;5094259;28;19935;-87
2023/05/05 11:38:58;;;;;;;;;;;19.40;99.90;;;;;;5022911;28;20395;-87
2023/05/05 11:41:32;;;;;;;;;;;19.30;99.90;;;;;;5077620;28;19928;-88
2023/05/05 11:44:11;;;;;;;;;;;19.20;99.90;;;;;;5077423;28;20467;-88
2023/05/05 11:47:00;;;;;;;;;;;19.20;99.90;;;;;;5094584;28;19973;-86
2023/05/05 11:49:32;;;;;;;;;;;19.20;99.90;;;;;;5047404;28;20314;-88
2023/05/05 11:52:00;;;;;;;;;;;19.20;99.90;;;;;;5077667;28;20073;-88
2023/05/05 11:54:26;;;;;;;;;;;19.20;99.90;;;;;;5094115;28;20291;-86
2023/05/05 11:56:53;;;;;;;;;;;19.10;99.90;;;;;;5095662;28;19924;-87
2023/05/05 11:59:18;;;;;;;;;;;19.10;99.90;;;;;;5062352;28;19924;-92
2023/05/05 12:01:44;;;;;;;;;;;19.20;99.90;;;;;;5078108;28;19946;-87
2023/05/05 12:04:10;;;;;;;;;;;19.30;99.90;;;;;;5094041;28;19928;-89
2023/05/05 12:06:36;;;;;;;;;;;19.30;99.90;;;;;;5060494;28;19931;-88
2023/05/05 12:09:02;;;;;;;;;;;19.40;99.90;;;;;;5094154;28;19924;-87
2023/05/05 12:11:28;;;;;;;;;;;19.40;99.90;;;;;;5077241;28;19935;-87
2023/05/05 12:14:07;;;;;;;;;;;19.50;99.90;;;;;;5060519;28;20344;-87
2023/05/05 12:16:33;;;;;;;;;;;19.60;99.90;;;;;;5076884;28;19971;-87
2023/05/05 12:19:02;;;;;;;;;;;19.60;99.90;;;;;;5076675;28;19967;-87
2023/05/05 12:21:28;;;;;;;;;;;19.40;99.90;;;;;;5077019;28;19931;-88
2023/05/05 12:23:53;;;;;;;;;;;19.30;99.90;;;;;;5060902;28;19924;-87
2023/05/05 12:26:30;;;;;;;;;;;19.30;99.90;;;;;;5077431;28;20385;-87
2023/05/05 12:28:56;;;;;;;;;;;19.40;99.90;;;;;;5093619;28;19931;-87
2023/05/05 12:31:22;;;;;;;;;;;19.50;99.90;;;;;;5093565;28;19967;-88
2023/05/05 12:33:47;;;;;;;;;;;19.60;99.90;;;;;;5077285;28;20017;-89
2023/05/05 12:36:14;;;;;;;;;;;19.70;99.90;;;;;;5093683;28;19928;-89
2023/05/05 12:38:40;;;;;;;;;;;19.70;99.90;;;;;;5076420;28;19928;-87
2023/05/05 12:41:06;;;;;;;;;;;19.80;99.90;;;;;;5093371;28;19947;-87
2023/05/05 12:43:33;;;;;;;;;;;20.00;99.90;;;;;;5093440;28;20352;-90
2023/05/05 12:46:02;;;;;;;;;;;20.00;99.90;;;;;;5095316;28;19924;-90
2023/05/05 12:48:27;;;;;;;;;;;19.80;99.90;;;;;;5076315;28;19981;-88
2023/05/05 12:50:53;;;;;;;;;;;19.80;99.90;;;;;;5093267;28;20375;-89
2023/05/05 12:53:22;;;;;;;;;;;19.70;99.90;;;;;;5093080;28;20533;-90
2023/05/05 12:55:49;;;;;;;;;;;19.70;99.90;;;;;;5093007;28;19924;-88
2023/05/05 12:58:14;;;;;;;;;;;19.50;99.90;;;;;;5092870;28;19931;-89
2023/05/05 13:00:40;;;;;;;;;;;19.40;99.90;;;;;;5075558;28;19924;-90
2023/05/05 13:03:16;;;;;;;;;;;19.20;99.90;;;;;;5076165;28;19924;-87
2023/05/05 13:05:42;;;;;;;;;;;19.20;99.90;;;;;;5075962;28;20366;-91
2023/05/05 13:08:07;;;;;;;;;;;19.10;99.90;;;;;;5093014;28;20022;-89
2023/05/05 13:10:33;;;;;;;;;;;19.00;99.90;;;;;;5092906;28;19924;-89
2023/05/05 13:12:59;;;;;;;;;;;18.80;99.90;;;;;;5093906;28;19924;-88
2023/05/05 13:15:24;;;;;;;;;;;18.80;99.90;;;;;;5075945;28;19931;-88
2023/05/05 13:17:57;;;;;;;;;;;18.50;99.90;;;;;;5075579;28;20371;-87
2023/05/05 13:20:22;;;;;;;;;;;18.20;99.90;;;;;;5093214;28;20458;-88
2023/05/05 13:22:48;;;;;;;;;;;17.80;99.90;;;;;;5059394;28;20018;-91
2023/05/05 13:25:14;;;;;;;;;;;17.30;99.90;;;;;;5075912;28;19938;-90
2023/05/05 13:27:39;;;;;;;;;;;17.00;99.90;;;;;;5092782;28;19935;-91
2023/05/05 13:30:06;;;;;;;;;;;16.60;99.90;;;;;;5059770;28;19928;-90
2023/05/05 13:32:31;;;;;;;;;;;16.00;99.90;;;;;;5059539;28;19924;-89
2023/05/05 13:34:57;;;;;;;;;;;15.50;99.90;;;;;;5076376;28;19928;-95
2023/05/05 13:37:23;;;;;;;;;;;15.20;99.90;;;;;;5076212;28;19925;-94
2023/05/05 13:39:48;;;;;;;;;;;14.90;99.90;;;;;;5093565;28;19931;-92
2023/05/05 13:42:14;;;;;;;;;;;14.80;99.90;;;;;;5060015;28;20015;-89
2023/05/05 13:44:39;;;;;;;;;;;14.90;99.90;;;;;;5059961;28;20268;-91
2023/05/05 13:47:05;;;;;;;;;;;14.60;99.90;;;;;;5092114;28;19924;-91
2023/05/05 13:49:33;;;;;;;;;;;14.60;99.90;;;;;;5075489;28;19967;-92
2023/05/05 13:51:59;;;;;;;;;;;14.60;99.90;;;;;;5059359;28;20352;-89
2023/05/05 13:54:24;;;;;;;;;;;14.50;99.90;;;;;;5075977;28;19931;-90
2023/05/05 13:56:50;;;;;;;;;;;14.40;99.90;;;;;;5076489;28;19946;-90
2023/05/05 13:59:16;;;;;;;;;;;14.60;99.90;;;;;;5075137;28;19927;-89
2023/05/05 14:01:44;;;;;;;;;;;14.30;99.90;;;;;;5093276;28;19924;-90
2023/05/05 14:04:10;;;;;;;;;;;14.20;99.90;;;;;;5075681;28;19924;-89
2023/05/05 14:06:36;;;;;;;;;;;14.60;99.90;;;;;;5093360;28;19924;-88
2023/05/05 14:09:04;;;;;;;;;;;14.40;99.90;;;;;;5092268;28;19928;-88
2023/05/05 14:11:30;;;;;;;;;;;14.00;99.90;;;;;;5092363;28;19928;-87
2023/05/05 14:13:56;;;;;;;;;;;14.00;99.90;;;;;;5075531;28;19924;-88
2023/05/05 14:16:24;;;;;;;;;;;11.50;99.90;;;;;;5093270;28;19943;-90
2023/05/05 14:18:50;;;;;;;;;;;13.90;99.90;;;;;;5078242;28;19935;-89
2023/05/05 14:21:15;;;;;;;;;;;13.90;99.90;;;;;;5078988;28;19924;-89